This is the latest recevied weather packets stored in our database for station/object HS9UAC-10. If no packets are shown the sender has not sent any weather packets the latest 10 day(s).
| Time | Temp. | Humidity | Pressure | Rain* | Wind** | Luminosity | Snow |
|---|---|---|---|---|---|---|---|
| 1777731992 | 36.67° C | 62% | 1007 hPa | - | - | 0 W/m² | - |
| 1777731069 | 36.67° C | 63% | 1007 hPa | - | - | 0 W/m² | - |
| 1777730143 | 35.56° C | 67% | 1007 hPa | - | - | 0 W/m² | - |
| 1777729218 | 36.67° C | 64% | 1007 hPa | - | - | 0 W/m² | - |
| 1777728294 | 36.67° C | 64% | 1007 hPa | - | - | 0 W/m² | - |
| 1777727369 | 37.22° C | 62% | 1007 hPa | - | - | 0 W/m² | - |
| 1777726444 | 36.67° C | 63% | 1007 hPa | - | - | 0 W/m² | - |
| 1777725520 | 37.22° C | 61% | 1007 hPa | - | - | 0 W/m² | - |
| 1777724595 | 37.22° C | 63% | 1006 hPa | - | - | 0 W/m² | - |
| 1777723670 | 36.11° C | 66% | 1006 hPa | - | - | 0 W/m² | - |
| 1777722746 | 35.56° C | 68% | 1006 hPa | - | - | 0 W/m² | - |
| 1777721821 | 35.56° C | 70% | 1005 hPa | - | - | 0 W/m² | - |
| 1777720897 | 36.67° C | 65% | 1005 hPa | - | - | 0 W/m² | - |
| 1777719972 | 36.67° C | 64% | 1005 hPa | - | - | 0 W/m² | - |
| 1777719048 | 37.22° C | 62% | 1005 hPa | - | - | 0 W/m² | - |
| 1777718123 | 37.22° C | 62% | 1005 hPa | - | - | 0 W/m² | - |
| 1777717198 | 36.11° C | 65% | 1005 hPa | - | - | 0 W/m² | - |
| 1777716274 | 38.89° C | 53% | 1005 hPa | - | - | 0 W/m² | - |
| 1777715349 | 40.56° C | 47% | 1005 hPa | - | - | 0 W/m² | - |
| 1777714425 | 40.56° C | 45% | 1005 hPa | - | - | 0 W/m² | - |
| 1777713500 | 43.33° C | 40% | 1004 hPa | - | - | 0 W/m² | - |
| 1777712575 | 45° C | 37% | 1004 hPa | - | - | 0 W/m² | - |
| 1777711651 | 43.33° C | 40% | 1005 hPa | - | - | 0 W/m² | - |
| 1777710726 | 42.78° C | 41% | 1004 hPa | - | - | 0 W/m² | - |
| 1777709802 | 41.67° C | 45% | 1004 hPa | - | - | 0 W/m² | - |
* Rain since midnight (hover to see other rain measurements)
** Current wind speed in m/s (hover to see current wind gust speed)